Time;durP1;ratioP1;P1;durP2;ratioP2;P2;SDS_P1;SDS_P2;PMS_P1;PMS_P2;Temp;Humidity;BMP_temperature;BMP_pressure;BME280_temperature;BME280_humidity;BME280_pressure;Samples;Min_cycle;Max_cycle;Signal;HPM_P1;HPM_P2
2023/03/11 00:01:53;;;;;;;16.05;8.45;;;;;;;11.55;94.75;99346.09;4991588;28;20036;-89
2023/03/11 00:04:19;;;;;;;25.15;9.70;;;;;;;11.60;94.79;99333.66;4959265;28;20037;-89
2023/03/11 00:06:44;;;;;;;13.15;8.98;;;;;;;11.47;94.68;99318.16;4991540;28;20057;-89
2023/03/11 00:09:10;;;;;;;20.77;9.98;;;;;;;11.39;94.75;99298.94;4991188;28;20037;-89
2023/03/11 00:11:35;;;;;;;18.08;9.38;;;;;;;11.27;94.97;99284.31;4991343;28;20033;-89
2023/03/11 00:14:01;;;;;;;19.58;8.80;;;;;;;11.53;94.97;99331.63;5007660;28;20034;-89
2023/03/11 00:16:26;;;;;;;16.52;9.18;;;;;;;11.44;95.06;99317.56;4974585;28;20049;-89
2023/03/11 00:18:52;;;;;;;14.85;8.35;;;;;;;11.60;95.06;99323.28;5007563;28;20562;-89
2023/03/11 00:24:02;;;;;;;14.02;8.48;;;;;;;11.47;94.67;99286.25;4990709;28;20081;-88
2023/03/11 00:26:28;;;;;;;18.88;9.45;;;;;;;11.71;93.89;99319.91;4974912;28;20060;-89
2023/03/11 00:28:54;;;;;;;21.65;12.13;;;;;;;11.68;93.76;99320.94;4990957;28;20045;-89
2023/03/11 00:31:20;;;;;;;22.38;12.77;;;;;;;11.62;93.73;99307.63;4991052;28;20031;-89
2023/03/11 00:33:45;;;;;;;20.75;11.88;;;;;;;11.69;93.92;99307.03;4991102;28;20511;-89
2023/03/11 00:36:27;;;;;;;22.35;14.82;;;;;;;11.62;93.63;99294.69;4990972;28;20030;-88
2023/03/11 00:38:53;;;;;;;17.23;12.00;;;;;;;11.61;93.08;99293.84;4991366;28;20030;-88
2023/03/11 00:41:18;;;;;;;24.58;12.02;;;;;;;11.66;93.30;99302.09;4990759;28;20513;-88
2023/03/11 00:43:44;;;;;;;32.33;11.60;;;;;;;11.57;93.06;99302.78;4974354;28;20027;-88
2023/03/11 00:46:09;;;;;;;22.85;12.55;;;;;;;11.58;92.66;99294.06;4990605;28;20030;-88
2023/03/11 00:48:35;;;;;;;25.77;14.30;;;;;;;11.37;92.97;99270.56;4990642;28;20030;-88
2023/03/11 00:51:00;;;;;;;30.70;14.38;;;;;;;11.40;93.14;99269.50;4990240;28;20034;-88
2023/03/11 00:53:26;;;;;;;26.70;15.60;;;;;;;11.37;93.27;99273.16;4973988;28;20034;-88
2023/03/11 00:55:51;;;;;;;21.15;13.88;;;;;;;11.40;93.23;99272.09;5006600;28;20057;-89
2023/03/11 00:58:17;;;;;;;23.42;14.13;;;;;;;11.41;93.05;99273.78;4990475;28;20037;-88
2023/03/11 01:00:42;;;;;;;19.17;12.18;;;;;;;11.33;93.27;99266.56;4990508;28;20034;-88
2023/03/11 01:03:07;;;;;;;19.48;11.52;;;;;;;11.32;93.15;99264.09;4990288;28;20034;-88
2023/03/11 01:05:33;;;;;;;24.80;14.43;;;;;;;11.38;93.37;99261.03;4990221;28;20436;-89
2023/03/11 01:07:59;;;;;;;22.67;13.57;;;;;;;11.33;92.83;99255.41;4990146;28;20062;-88
2023/03/11 01:10:24;;;;;;;19.17;13.75;;;;;;;11.47;92.69;99266.38;4990419;28;20062;-89
2023/03/11 01:12:50;;;;;;;22.70;13.85;;;;;;;11.37;92.44;99259.41;4990173;28;20117;-89
2023/03/11 01:15:27;;;;;;;27.58;13.68;;;;;;;11.36;92.59;99257.75;4990082;28;20511;-89
2023/03/11 01:17:53;;;;;;;20.23;13.35;;;;;;;11.31;92.31;99241.75;4991705;28;20046;-89
2023/03/11 01:20:18;;;;;;;22.70;13.07;;;;;;;11.27;92.15;99232.53;5006525;28;20042;-89
2023/03/11 01:22:44;;;;;;;29.70;14.63;;;;;;;11.30;92.38;99245.25;5006270;28;20026;-89
2023/03/11 01:25:11;;;;;;;20.05;13.82;;;;;;;11.29;92.88;99234.06;4990383;28;20034;-89
2023/03/11 01:27:37;;;;;;;24.48;13.10;;;;;;;11.32;92.83;99231.28;4993149;28;20045;-88
2023/03/11 01:30:03;;;;;;;20.67;13.15;;;;;;;11.30;92.92;99227.13;4994399;28;20496;-88
2023/03/11 01:32:29;;;;;;;23.30;14.48;;;;;;;11.27;92.83;99227.34;5010475;28;20049;-89
2023/03/11 01:34:55;;;;;;;19.10;12.70;;;;;;;11.18;93.16;99224.50;4994294;28;20037;-89
2023/03/11 01:37:20;;;;;;;35.92;15.07;;;;;;;11.26;92.88;99231.72;4993869;28;20027;-89
2023/03/11 01:39:46;;;;;;;27.05;13.02;;;;;;;11.26;92.64;99225.72;4994048;28;20038;-88
2023/03/11 01:42:11;;;;;;;29.55;14.68;;;;;;;11.21;93.05;99218.28;4993990;28;20026;-89
2023/03/11 01:44:37;;;;;;;18.20;11.45;;;;;;;11.00;92.85;99188.78;4993938;28;20042;-88
2023/03/11 01:47:02;;;;;;;18.67;11.75;;;;;;;11.20;92.14;99232.16;5010335;28;20092;-88
2023/03/11 01:49:27;;;;;;;22.50;12.45;;;;;;;11.12;92.42;99224.16;4995306;28;20062;-88
2023/03/11 01:51:55;;;;;;;22.80;12.88;;;;;;;11.12;92.42;99222.38;4993682;28;20099;-88
2023/03/11 01:54:22;;;;;;;31.05;16.55;;;;;;;11.10;91.87;99226.00;4994013;28;20093;-88
2023/03/11 01:56:48;;;;;;;20.88;11.50;;;;;;;11.08;91.98;99231.28;4993782;28;20413;-88
2023/03/11 01:59:16;;;;;;;23.88;11.88;;;;;;;11.04;92.05;99232.47;4993673;28;20518;-89
2023/03/11 02:02:26;;;;;;;24.20;13.13;;;;;;;11.06;91.67;99246.13;4993866;28;20030;-89
2023/03/11 02:04:52;;;;;;;23.52;11.15;;;;;;;10.98;91.82;99240.66;4983996;28;21248;-88
2023/03/11 02:07:17;;;;;;;14.93;9.93;;;;;;;10.91;92.26;99231.69;4993644;28;20554;-88
2023/03/11 02:09:43;;;;;;;12.38;7.50;;;;;;;10.97;91.34;99249.38;4993497;28;20393;-89
2023/03/11 02:12:09;;;;;;;11.18;5.70;;;;;;;11.05;91.07;99260.00;4993631;28;20481;-89
2023/03/11 02:14:35;;;;;;;13.27;8.05;;;;;;;11.01;90.92;99263.75;4993285;28;20034;-88
2023/03/11 02:17:01;;;;;;;15.10;7.93;;;;;;;11.01;90.95;99268.06;4993407;28;20049;-88
2023/03/11 02:19:48;;;;;;;21.80;7.90;;;;;;;11.07;90.50;99273.63;4992950;28;20065;-88
2023/03/11 02:22:13;;;;;;;14.13;4.78;;;;;;;11.03;89.91;99272.22;4994692;28;20099;-88
2023/03/11 02:24:44;;;;;;;5.43;2.97;;;;;;;11.15;89.73;99286.84;4977024;28;20054;-88
2023/03/11 02:27:13;;;;;;;8.52;5.72;;;;;;;11.07;88.86;99284.00;4994368;28;20066;-88
2023/03/11 02:29:39;;;;;;;8.98;4.97;;;;;;;10.77;89.47;99235.28;4993253;28;20053;-88
2023/03/11 02:32:07;;;;;;;11.07;4.55;;;;;;;11.09;89.04;99276.94;4993198;28;20109;-88
2023/03/11 02:34:34;;;;;;;5.78;3.53;;;;;;;11.19;88.74;99270.16;4993037;28;20030;-88
2023/03/11 02:37:00;;;;;;;5.53;2.70;;;;;;;11.27;87.10;99285.13;4993071;28;20042;-88
2023/03/11 02:39:33;;;;;;;3.47;2.65;;;;;;;11.17;87.81;99274.63;4992441;28;20476;-89
2023/03/11 02:41:59;;;;;;;3.85;2.65;;;;;;;11.18;88.45;99285.81;4992782;28;20484;-89
2023/03/11 02:44:25;;;;;;;3.22;2.28;;;;;;;11.24;89.21;99293.13;4993396;28;20032;-89
2023/03/11 02:46:50;;;;;;;4.32;2.25;;;;;;;11.19;88.88;99293.44;4977097;28;20085;-91
2023/03/11 02:49:16;;;;;;;6.18;2.42;;;;;;;11.31;88.49;99294.34;4961121;28;20038;-91
2023/03/11 02:51:41;;;;;;;2.85;1.88;;;;;;;11.30;88.36;99303.03;4993485;28;20448;-91
2023/03/11 02:54:06;;;;;;;2.47;1.48;;;;;;;11.28;87.90;99296.31;4993560;28;20034;-91
2023/03/11 02:56:32;;;;;;;2.05;1.00;;;;;;;11.30;86.79;99305.63;4993439;28;20528;-91
2023/03/11 02:58:57;;;;;;;2.83;1.05;;;;;;;11.38;84.67;99312.81;4993675;28;20022;-91
2023/03/11 03:01:23;;;;;;;2.25;1.20;;;;;;;11.39;84.95;99314.47;4993376;28;20030;-91
2023/03/11 03:03:48;;;;;;;1.42;1.15;;;;;;;11.22;84.95;99276.91;4960753;28;20037;-92
2023/03/11 03:06:14;;;;;;;1.52;0.88;;;;;;;11.46;83.83;99308.75;5009665;28;20053;-92
2023/03/11 03:08:39;;;;;;;4.63;2.08;;;;;;;11.34;85.56;99298.47;4993492;28;20030;-91
2023/03/11 03:11:05;;;;;;;1.67;1.27;;;;;;;11.36;86.07;99310.34;4976846;28;20030;-91
2023/03/11 03:13:31;;;;;;;3.45;1.90;;;;;;;11.41;85.95;99321.22;4993294;28;20069;-92
2023/03/11 03:15:57;;;;;;;11.63;1.15;;;;;;;11.43;86.17;99315.91;4977061;28;20140;-91
2023/03/11 03:18:22;;;;;;;1.85;1.15;;;;;;;11.48;86.46;99319.00;4993037;28;20546;-91
2023/03/11 03:20:48;;;;;;;2.42;1.60;;;;;;;11.35;87.04;99306.13;4993044;28;20492;-90
2023/03/11 03:23:13;;;;;;;2.53;1.60;;;;;;;11.49;86.91;99325.81;4994262;28;20412;-90
2023/03/11 03:25:43;;;;;;;2.33;1.65;;;;;;;11.41;87.09;99315.22;4976414;28;20038;-90
2023/03/11 03:28:10;;;;;;;3.17;1.83;;;;;;;11.47;87.15;99332.88;4992956;28;20101;-89
2023/03/11 03:30:36;;;;;;;3.92;2.58;;;;;;;11.46;87.61;99323.47;4992425;28;20038;-90
2023/03/11 03:33:01;;;;;;;4.68;2.78;;;;;;;11.41;87.33;99313.44;4976027;28;20037;-90
2023/03/11 03:35:27;;;;;;;2.38;1.60;;;;;;;11.44;87.24;99322.75;4976259;28;20407;-90
2023/03/11 03:37:53;;;;;;;3.92;2.60;;;;;;;11.45;87.74;99322.63;4992285;28;20034;-89
2023/03/11 03:40:19;;;;;;;7.43;2.88;;;;;;;11.49;87.57;99325.81;4976282;28;20034;-90
2023/03/11 03:42:44;;;;;;;4.93;2.35;;;;;;;11.38;86.86;99292.13;4992153;28;20061;-89
2023/03/11 03:45:10;;;;;;;3.33;2.13;;;;;;;11.55;87.23;99309.84;4975627;28;20170;-89
2023/03/11 03:47:36;;;;;;;3.30;2.08;;;;;;;11.53;87.50;99305.72;4991661;28;20041;-90
2023/03/11 03:50:03;;;;;;;2.38;2.00;;;;;;;11.51;88.52;99317.97;4990682;28;20033;-89
2023/03/11 03:52:28;;;;;;;2.53;1.73;;;;;;;11.48;88.46;99322.41;4975521;28;20038;-89
2023/03/11 03:54:53;;;;;;;3.42;2.90;;;;;;;11.43;87.57;99311.56;4991912;28;20404;-89
2023/03/11 03:57:19;;;;;;;3.08;1.77;;;;;;;11.52;87.68;99320.44;4975117;28;20046;-89
2023/03/11 03:59:44;;;;;;;6.05;3.22;;;;;;;11.38;87.22;99297.28;4975388;28;20030;-89
2023/03/11 04:02:10;;;;;;;5.00;3.85;;;;;;;11.51;86.54;99316.19;4974956;28;20030;-89
2023/03/11 04:04:35;;;;;;;2.75;2.28;;;;;;;11.43;85.98;99298.63;4991489;28;20026;-90
2023/03/11 04:07:04;;;;;;;4.05;2.75;;;;;;;11.46;86.44;99305.34;4991993;28;20033;-90
2023/03/11 04:09:29;;;;;;;3.78;2.67;;;;;;;11.47;87.36;99306.97;4975259;28;20093;-90
2023/03/11 04:11:54;;;;;;;2.50;1.90;;;;;;;11.44;87.36;99304.63;4991471;28;20034;-90
2023/03/11 04:14:20;;;;;;;3.97;2.28;;;;;;;11.45;87.61;99298.50;4991763;28;20034;-91
2023/03/11 04:16:45;;;;;;;3.70;3.05;;;;;;;11.38;87.88;99305.06;4975270;28;20030;-91
2023/03/11 04:19:11;;;;;;;7.57;2.90;;;;;;;11.39;87.74;99298.94;4992017;28;20026;-92
2023/03/11 04:21:36;;;;;;;6.32;3.53;;;;;;;11.33;87.71;99291.63;4991950;28;20034;-91
2023/03/11 04:24:02;;;;;;;9.40;4.10;;;;;;;11.37;88.16;99298.22;4991540;28;20517;-90
2023/03/11 04:26:27;;;;;;;7.78;4.47;;;;;;;11.34;87.67;99301.88;4991613;28;20109;-89
2023/03/11 04:28:53;;;;;;;4.32;3.50;;;;;;;11.35;87.82;99300.94;4975117;28;20034;-89
2023/03/11 04:31:18;;;;;;;4.40;3.25;;;;;;;11.29;87.52;99288.44;4991025;28;20480;-90
2023/03/11 04:33:44;;;;;;;3.70;2.67;;;;;;;11.31;87.35;99288.34;5007588;28;20034;-89
2023/03/11 04:36:10;;;;;;;6.90;3.22;;;;;;;11.32;87.08;99292.59;4975020;28;20073;-90
2023/03/11 04:38:36;;;;;;;5.70;3.88;;;;;;;11.42;86.60;99304.75;4991118;28;20026;-90
2023/03/11 04:41:02;;;;;;;3.72;3.17;;;;;;;11.45;86.69;99308.88;4991040;28;20432;-89
2023/03/11 04:43:28;;;;;;;3.50;2.58;;;;;;;11.36;87.11;99305.19;4974987;28;20120;-89
2023/03/11 04:45:53;;;;;;;3.17;2.17;;;;;;;11.34;87.18;99295.88;4990996;28;20476;-90
2023/03/11 04:48:19;;;;;;;3.92;2.60;;;;;;;11.32;87.29;99293.41;4974664;28;20022;-89
2023/03/11 04:50:44;;;;;;;4.90;3.47;;;;;;;11.31;87.15;99296.94;4974389;28;20504;-89
2023/03/11 04:53:10;;;;;;;5.63;3.50;;;;;;;11.21;87.78;99295.97;4974667;28;20034;-89
2023/03/11 04:55:35;;;;;;;3.50;2.70;;;;;;;11.15;88.58;99299.81;4991614;28;20040;-88
2023/03/11 04:58:00;;;;;;;4.80;2.60;;;;;;;11.17;88.72;99316.03;4990492;28;20085;-89
2023/03/11 05:00:26;;;;;;;4.03;2.47;;;;;;;11.08;89.23;99308.09;4990275;28;20036;-88
2023/03/11 05:02:51;;;;;;;6.35;2.80;;;;;;;11.20;87.30;99320.97;4957573;28;20052;-88
2023/03/11 05:05:20;;;;;;;3.65;2.92;;;;;;;11.26;86.93;99313.72;4990500;28;20034;-87
2023/03/11 05:07:46;;;;;;;4.63;2.50;;;;;;;11.26;86.17;99324.09;4974744;28;20038;-88
2023/03/11 05:10:11;;;;;;;2.85;1.73;;;;;;;11.19;85.79;99321.09;4990539;28;20117;-89
2023/03/11 05:12:38;;;;;;;1.85;1.58;;;;;;;11.13;85.25;99319.78;4974282;28;20054;-88
2023/03/11 05:15:04;;;;;;;4.13;2.17;;;;;;;11.12;85.79;99318.16;4973891;28;20039;-88
2023/03/11 05:17:29;;;;;;;3.47;2.58;;;;;;;11.14;84.61;99321.44;5006689;28;20030;-88
2023/03/11 05:19:56;;;;;;;3.22;2.17;;;;;;;11.13;85.41;99324.16;4974295;28;20030;-88
2023/03/11 05:22:21;;;;;;;3.35;2.05;;;;;;;11.08;85.79;99315.88;4990435;28;20428;-88
2023/03/11 05:24:47;;;;;;;3.30;2.25;;;;;;;11.08;85.70;99331.41;4974454;28;20046;-88
2023/03/11 05:27:15;;;;;;;3.53;2.40;;;;;;;11.01;86.11;99310.34;4990299;28;20066;-88
2023/03/11 05:29:41;;;;;;;3.33;1.58;;;;;;;11.07;85.23;99325.41;4974116;28;20031;-88
2023/03/11 05:32:06;;;;;;;5.68;2.97;;;;;;;11.04;86.13;99312.69;4974088;28;20476;-87
2023/03/11 05:34:32;;;;;;;4.03;2.33;;;;;;;11.14;85.31;99329.22;4989963;28;20041;-88
2023/03/11 05:36:58;;;;;;;4.85;2.13;;;;;;;11.06;84.53;99321.16;4990047;28;20034;-89
2023/03/11 05:39:23;;;;;;;3.58;2.47;;;;;;;11.13;84.52;99335.31;4989929;28;20534;-88
2023/03/11 05:41:48;;;;;;;5.75;3.85;;;;;;;11.07;85.59;99334.94;4973803;28;20034;-88
2023/03/11 05:44:14;;;;;;;6.43;2.83;;;;;;;10.98;83.70;99326.06;4957546;28;20037;-88
2023/03/11 05:46:39;;;;;;;4.00;3.00;;;;;;;11.08;84.35;99324.47;4957770;28;20053;-89
2023/03/11 05:49:05;;;;;;;3.63;1.60;;;;;;;11.18;83.30;99333.22;4974509;28;20073;-88
2023/03/11 05:51:30;;;;;;;4.28;3.22;;;;;;;11.15;84.49;99320.50;4989811;28;20080;-88
2023/03/11 05:53:57;;;;;;;5.05;2.85;;;;;;;11.22;84.64;99322.66;4973478;28;20026;-88
2023/03/11 05:56:22;;;;;;;5.70;2.97;;;;;;;11.15;84.55;99317.91;4973729;28;20476;-87
2023/03/11 05:58:48;;;;;;;3.42;2.03;;;;;;;11.24;83.36;99331.13;4989424;28;20042;-88
2023/03/11 06:01:15;;;;;;;3.92;2.78;;;;;;;11.35;83.02;99328.59;4990123;28;20076;-88
2023/03/11 06:03:41;;;;;;;5.63;3.47;;;;;;;11.36;83.19;99325.91;4989733;28;20034;-87
2023/03/11 06:06:08;;;;;;;5.38;3.38;;;;;;;11.44;82.58;99333.09;4989547;28;20112;-88
2023/03/11 06:08:34;;;;;;;8.00;4.03;;;;;;;11.25;83.83;99301.72;4989896;28;20500;-88
2023/03/11 06:11:01;;;;;;;5.47;2.85;;;;;;;11.35;81.27;99313.06;4973625;28;20030;-88
2023/03/11 06:13:26;;;;;;;3.03;2.20;;;;;;;11.59;81.81;99336.31;4990378;28;20034;-88
2023/03/11 06:15:52;;;;;;;3.83;2.65;;;;;;;11.66;82.04;99342.72;4993559;28;20037;-88
2023/03/11 06:18:17;;;;;;;6.30;4.50;;;;;;;11.74;80.48;99340.38;4993305;28;20049;-88
2023/03/11 06:20:42;;;;;;;10.27;4.72;;;;;;;11.75;82.49;99345.44;4993355;28;20539;-88
2023/03/11 06:23:08;;;;;;;6.70;4.57;;;;;;;11.73;81.83;99326.63;4993373;28;20027;-88
2023/03/11 06:25:33;;;;;;;6.30;3.40;;;;;;;11.72;82.63;99312.00;4976553;28;20030;-88
2023/03/11 06:27:59;;;;;;;6.07;4.03;;;;;;;11.94;80.06;99323.38;4993116;28;20027;-88
2023/03/11 06:30:24;;;;;;;6.18;3.60;;;;;;;11.95;80.29;99332.81;4993178;28;20085;-88
2023/03/11 06:32:50;;;;;;;4.90;2.88;;;;;;;12.01;79.38;99338.38;4993062;28;20022;-87
2023/03/11 06:35:15;;;;;;;9.07;3.15;;;;;;;11.89;79.21;99323.72;5009467;28;20064;-88
2023/03/11 06:37:41;;;;;;;3.85;1.80;;;;;;;11.93;79.76;99340.72;4976924;28;20396;-88
2023/03/11 06:40:08;;;;;;;3.83;2.28;;;;;;;11.95;78.48;99331.03;4976531;28;20041;-88
2023/03/11 06:42:34;;;;;;;2.53;1.88;;;;;;;12.04;77.92;99339.91;4976996;28;20109;-88
2023/03/11 06:44:59;;;;;;;2.95;1.92;;;;;;;11.93;77.50;99309.59;4976791;28;20035;-89
2023/03/11 06:47:24;;;;;;;3.67;2.33;;;;;;;12.10;79.30;99321.31;4992750;28;20081;-88
2023/03/11 06:49:50;;;;;;;2.30;1.48;;;;;;;12.17;77.56;99330.25;4992747;28;20415;-88
2023/03/11 06:52:16;;;;;;;3.65;2.33;;;;;;;12.00;78.77;99295.25;4992781;28;20030;-88
2023/03/11 06:54:41;;;;;;;4.40;2.65;;;;;;;12.15;79.52;99301.03;5008575;28;20080;-88
2023/03/11 06:57:07;;;;;;;2.95;2.17;;;;;;;12.29;77.91;99326.75;4992621;28;20049;-88
2023/03/11 06:59:33;;;;;;;4.00;2.63;;;;;;;12.32;79.22;99320.50;4992565;28;20023;-88
2023/03/11 07:01:58;;;;;;;5.93;3.28;;;;;;;12.50;77.14;99328.63;4976079;28;20452;-88
2023/03/11 07:04:24;;;;;;;8.23;4.03;;;;;;;12.54;77.16;99323.06;4976296;28;20542;-88
2023/03/11 07:06:49;;;;;;;2.15;1.77;;;;;;;12.58;75.42;99326.25;4992566;28;20037;-88
2023/03/11 07:09:15;;;;;;;5.30;3.30;;;;;;;12.63;75.93;99335.31;4975940;28;20034;-89
2023/03/11 07:11:40;;;;;;;2.85;2.20;;;;;;;12.79;75.53;99342.75;4976207;28;20034;-88
2023/03/11 07:14:06;;;;;;;3.65;1.60;;;;;;;12.90;74.89;99345.31;4992250;28;20034;-88
2023/03/11 07:16:31;;;;;;;5.13;1.73;;;;;;;12.79;74.33;99319.41;4976087;28;20026;-88
2023/03/11 07:18:59;;;;;;;6.43;2.15;;;;;;;12.86;72.93;99338.72;4992276;28;20093;-88
2023/03/11 07:21:25;;;;;;;1.50;1.40;;;;;;;12.66;71.70;99313.50;4976193;28;20034;-88
2023/03/11 07:23:52;;;;;;;2.92;1.80;;;;;;;12.91;72.60;99353.94;4992175;28;20026;-88
2023/03/11 07:26:18;;;;;;;2.55;1.65;;;;;;;12.82;72.04;99324.34;4992204;28;20023;-88
2023/03/11 07:28:43;;;;;;;1.52;0.93;;;;;;;12.89;70.84;99325.50;5008374;28;20057;-88
2023/03/11 07:31:12;;;;;;;1.70;1.13;;;;;;;13.12;70.35;99351.41;4993371;28;20534;-89
2023/03/11 07:33:38;;;;;;;3.83;1.92;;;;;;;13.12;71.57;99335.84;4976296;28;20045;-88
2023/03/11 07:36:10;;;;;;;1.17;0.85;;;;;;;13.31;71.39;99327.41;4991953;28;20052;-89
2023/03/11 07:38:36;;;;;;;1.95;0.82;;;;;;;13.35;69.14;99327.03;4991810;28;20034;-88
2023/03/11 07:41:02;;;;;;;0.63;0.50;;;;;;;13.52;69.65;99328.28;4975743;28;20121;-89
2023/03/11 07:43:27;;;;;;;2.25;1.20;;;;;;;13.62;67.42;99320.56;4991922;28;20030;-89
2023/03/11 07:46:01;;;;;;;4.38;1.40;;;;;;;13.62;67.11;99307.56;4991814;28;20035;-89
2023/03/11 07:48:27;;;;;;;2.40;1.65;;;;;;;13.66;66.41;99308.94;4975613;28;20041;-88
2023/03/11 07:51:19;;;;;;;2.78;1.73;;;;;;;13.61;68.39;99285.13;4991584;28;20416;-88
2023/03/11 07:53:44;;;;;;;2.17;1.45;;;;;;;13.64;68.67;99300.44;4984007;28;20074;-88
2023/03/11 07:56:11;;;;;;;1.90;1.38;;;;;;;13.59;67.97;99276.63;4975112;28;20132;-88
2023/03/11 07:58:37;;;;;;;2.22;1.70;;;;;;;13.76;67.63;99300.28;4991483;28;20050;-88
2023/03/11 08:01:21;;;;;;;1.77;1.30;;;;;;;13.85;66.03;99292.66;4991824;28;20030;-88
2023/03/11 08:03:49;;;;;;;1.63;1.27;;;;;;;13.90;65.91;99291.31;4991511;28;20022;-88
2023/03/11 08:06:19;;;;;;;1.58;1.23;;;;;;;13.92;64.85;99297.22;4991202;28;20028;-87
2023/03/11 08:08:45;;;;;;;4.25;1.75;;;;;;;13.90;65.01;99290.50;4975425;28;20030;-87
2023/03/11 08:11:12;;;;;;;2.03;1.83;;;;;;;14.02;67.76;99277.28;4990886;28;20030;-89
2023/03/11 08:13:38;;;;;;;1.95;1.15;;;;;;;13.94;64.48;99269.31;4991138;28;20109;-88
2023/03/11 08:16:04;;;;;;;3.05;1.92;;;;;;;14.09;63.51;99294.97;4991243;28;20053;-88
2023/03/11 08:18:30;;;;;;;2.72;1.63;;;;;;;14.23;65.82;99271.22;4989765;28;20031;-87
2023/03/11 08:20:56;;;;;;;4.63;2.20;;;;;;;14.21;63.62;99275.72;5006629;28;20100;-87
2023/03/11 08:23:21;;;;;;;1.75;1.38;;;;;;;14.14;65.32;99288.41;5006934;28;20081;-86
2023/03/11 08:25:47;;;;;;;2.25;1.70;;;;;;;14.16;63.25;99259.69;4973965;28;20499;-86
2023/03/11 08:28:12;;;;;;;5.70;2.35;;;;;;;14.33;62.86;99261.66;4990153;28;20037;-87
2023/03/11 08:30:38;;;;;;;4.10;2.28;;;;;;;14.46;62.68;99277.91;4990412;28;20031;-87
2023/03/11 08:33:04;;;;;;;3.53;2.28;;;;;;;14.45;63.23;99275.41;4990349;28;20043;-87
2023/03/11 08:35:30;;;;;;;2.97;1.88;;;;;;;14.41;62.18;99258.41;5007278;28;20084;-87
2023/03/11 08:37:55;;;;;;;3.05;1.35;;;;;;;14.48;59.79;99265.59;4998953;28;20026;-87
2023/03/11 08:40:20;;;;;;;5.47;1.55;;;;;;;14.42;61.37;99242.66;4974156;28;20034;-87
2023/03/11 08:42:46;;;;;;;2.67;1.80;;;;;;;14.68;62.71;99273.44;4991140;28;20022;-86
2023/03/11 08:45:12;;;;;;;3.05;2.20;;;;;;;14.62;61.30;99265.19;4990608;28;20500;-87
2023/03/11 08:47:37;;;;;;;3.42;2.65;;;;;;;14.71;60.62;99273.16;4990416;28;20030;-88
2023/03/11 08:50:13;;;;;;;3.50;1.65;;;;;;;14.97;61.91;99289.94;5006067;28;20570;-87
2023/03/11 08:52:39;;;;;;;1.77;1.63;;;;;;;15.04;58.90;99283.22;4989693;28;20058;-88
2023/03/11 08:55:07;;;;;;;1.13;0.88;;;;;;;15.11;57.70;99299.94;5006805;28;20084;-88
2023/03/11 08:57:32;;;;;;;3.03;1.75;;;;;;;14.97;56.37;99282.13;5006336;28;20053;-87
2023/03/11 08:59:58;;;;;;;1.88;1.45;;;;;;;15.15;57.97;99270.09;4990135;28;20412;-87
2023/03/11 09:02:24;;;;;;;1.80;1.23;;;;;;;15.40;58.65;99286.09;4989716;28;20027;-88
2023/03/11 09:04:50;;;;;;;3.05;1.98;;;;;;;15.20;55.20;99293.91;4973960;28;20240;-86
2023/03/11 09:07:15;;;;;;;1.17;0.98;;;;;;;15.01;55.43;99296.50;4972935;28;20077;-86
2023/03/11 09:09:41;;;;;;;4.15;1.75;;;;;;;14.85;56.78;99302.25;4989389;28;20023;-87
2023/03/11 09:12:07;;;;;;;1.13;0.90;;;;;;;14.77;56.18;99302.09;4989737;28;20054;-87
2023/03/11 09:14:32;;;;;;;2.17;1.00;;;;;;;14.51;57.10;99273.13;4989744;28;20385;-87
2023/03/11 09:16:58;;;;;;;4.05;1.77;;;;;;;14.43;57.55;99259.09;4957713;28;20505;-87
2023/03/11 09:19:23;;;;;;;2.35;2.08;;;;;;;14.67;57.92;99296.06;4989668;28;20042;-86
2023/03/11 09:21:49;;;;;;;1.58;1.05;;;;;;;14.68;58.22;99289.88;4973072;28;20080;-87
2023/03/11 09:24:14;;;;;;;3.88;2.33;;;;;;;14.83;59.02;99305.94;4957605;28;20023;-87
2023/03/11 09:26:39;;;;;;;1.52;1.17;;;;;;;14.85;57.69;99299.66;4989630;28;20519;-87
2023/03/11 09:29:05;;;;;;;3.85;1.60;;;;;;;15.00;56.71;99301.88;5005988;28;20023;-87
2023/03/11 09:31:30;;;;;;;0.55;0.50;;;;;;;15.14;55.83;99315.31;4973439;28;20030;-87
2023/03/11 09:33:56;;;;;;;3.88;1.40;;;;;;;15.30;54.58;99288.72;4973475;28;20550;-87
2023/03/11 09:36:21;;;;;;;3.13;1.30;;;;;;;15.47;54.78;99295.03;4988855;28;20046;-87
2023/03/11 09:38:47;;;;;;;3.35;1.60;;;;;;;15.47;51.30;99277.59;4989346;28;20546;-87
2023/03/11 09:41:15;;;;;;;2.28;1.30;;;;;;;15.69;53.30;99309.56;4989519;28;20034;-86
2023/03/11 09:44:11;;;;;;;1.08;0.75;;;;;;;15.67;54.01;99288.84;4991021;28;20193;-87
2023/03/11 09:47:22;;;;;;;4.28;1.85;;;;;;;15.64;55.06;99312.59;4989288;28;20054;-86
2023/03/11 09:50:14;;;;;;;2.28;1.30;;;;;;;15.52;53.76;99292.00;4971113;28;20041;-86
2023/03/11 09:52:43;;;;;;;3.30;1.70;;;;;;;15.67;52.16;99314.09;4994794;28;20026;-86
2023/03/11 09:55:20;;;;;;;7.15;1.65;;;;;;;15.48;52.38;99327.94;4993593;28;20026;-86
2023/03/11 09:57:46;;;;;;;1.40;0.80;;;;;;;15.46;52.69;99311.63;4993074;28;20100;-86
2023/03/11 10:00:12;;;;;;;3.85;1.48;;;;;;;15.53;53.50;99317.09;4993615;28;20520;-86
2023/03/11 10:02:37;;;;;;;2.05;1.00;;;;;;;15.37;50.54;99300.25;4960688;28;20035;-86
2023/03/11 10:05:08;;;;;;;1.73;0.77;;;;;;;15.57;51.72;99316.69;4992737;28;20026;-86
2023/03/11 10:07:37;;;;;;;1.23;0.93;;;;;;;15.65;50.46;99314.25;4993326;28;20030;-86
2023/03/11 10:10:03;;;;;;;1.27;0.70;;;;;;;15.45;49.93;99282.13;4993292;28;20030;-86
2023/03/11 10:12:37;;;;;;;1.70;1.13;;;;;;;15.67;50.28;99298.47;4977223;28;20096;-89
2023/03/11 10:15:23;;;;;;;1.27;0.80;;;;;;;15.70;51.35;99303.38;4994240;28;20097;-88
2023/03/11 10:18:09;;;;;;;1.95;1.45;;;;;;;15.71;51.14;99312.84;4992630;28;20030;-89
2023/03/11 10:21:03;;;;;;;1.02;0.88;;;;;;;15.95;50.01;99317.63;5009283;28;20026;-88
2023/03/11 10:23:49;;;;;;;5.82;1.58;;;;;;;15.69;48.87;99286.94;4988255;28;20030;-87
2023/03/11 10:26:40;;;;;;;3.35;1.20;;;;;;;15.78;48.74;99283.47;4970940;28;20492;-85
2023/03/11 10:29:07;;;;;;;2.63;1.58;;;;;;;15.85;50.47;99290.75;4973374;28;20027;-86
2023/03/11 10:31:41;;;;;;;0.77;0.70;;;;;;;16.05;47.29;99300.16;4973557;28;20117;-87
2023/03/11 10:34:32;;;;;;;2.22;1.02;;;;;;;15.91;47.86;99274.53;4974597;28;20039;-86
2023/03/11 10:37:09;;;;;;;1.33;0.95;;;;;;;16.19;46.77;99299.69;4972807;28;20034;-85
2023/03/11 10:39:34;;;;;;;4.10;1.17;;;;;;;16.14;47.06;99308.94;4973870;28;20058;-86
2023/03/11 10:42:01;;;;;;;3.88;1.33;;;;;;;16.18;46.99;99282.41;4941187;28;20067;-87
2023/03/11 10:44:36;;;;;;;1.45;1.05;;;;;;;16.25;48.09;99286.09;4957103;28;20031;-86
2023/03/11 10:47:02;;;;;;;2.38;1.50;;;;;;;16.25;47.51;99270.44;4972891;28;20031;-86
2023/03/11 10:49:27;;;;;;;5.15;2.17;;;;;;;16.46;46.89;99295.47;4972863;28;20038;-86
2023/03/11 10:51:54;;;;;;;3.00;1.30;;;;;;;16.46;46.13;99298.09;4972783;28;20146;-86
2023/03/11 10:54:34;;;;;;;1.80;1.13;;;;;;;16.41;46.87;99289.84;4973092;28;20057;-86
2023/03/11 10:57:04;;;;;;;2.67;1.63;;;;;;;16.45;46.49;99296.44;4972764;28;20073;-87
2023/03/11 10:59:33;;;;;;;2.15;1.33;;;;;;;16.29;46.39;99287.44;4956242;28;20030;-86
2023/03/11 11:02:24;;;;;;;1.85;1.02;;;;;;;16.03;46.36;99291.66;4956618;28;20031;-85
2023/03/11 11:05:02;;;;;;;2.88;2.00;;;;;;;15.64;47.73;99283.09;4972575;28;20054;-85
2023/03/11 11:07:33;;;;;;;1.48;1.00;;;;;;;15.91;47.98;99290.16;4972603;28;20033;-87
2023/03/11 11:10:10;;;;;;;2.58;1.45;;;;;;;16.06;49.78;99286.16;4956684;28;20110;-87
2023/03/11 11:12:37;;;;;;;1.25;0.90;;;;;;;15.72;47.77;99273.59;4988884;28;20034;-86
2023/03/11 11:15:02;;;;;;;4.47;1.60;;;;;;;15.70;47.51;99270.31;4972855;28;20397;-86
2023/03/11 11:17:30;;;;;;;3.63;1.58;;;;;;;15.83;47.01;99292.66;4956384;28;20579;-86
2023/03/11 11:19:56;;;;;;;2.47;1.42;;;;;;;15.62;48.25;99264.97;4956239;28;20117;-86
2023/03/11 11:22:22;;;;;;;2.20;1.13;;;;;;;15.69;47.87;99273.88;4972408;28;20492;-86
2023/03/11 11:24:50;;;;;;;2.45;1.38;;;;;;;15.84;47.14;99271.69;4972602;28;20030;-86
2023/03/11 11:27:25;;;;;;;2.28;1.40;;;;;;;15.82;47.81;99270.16;4972461;28;20477;-86
2023/03/11 11:30:07;;;;;;;2.53;1.98;;;;;;;15.89;46.43;99279.06;4957810;28;20176;-85
2023/03/11 11:32:33;;;;;;;1.85;1.33;;;;;;;15.67;46.32;99262.78;4973665;28;20382;-85
2023/03/11 11:35:18;;;;;;;2.60;1.35;;;;;;;15.46;47.89;99238.66;4972443;28;20539;-86
2023/03/11 11:37:52;;;;;;;2.08;1.42;;;;;;;15.54;47.94;99270.06;4972135;28;20412;-86